Time;durP1;ratioP1;P1;durP2;ratioP2;P2;SDS_P1;SDS_P2;PMS_P1;PMS_P2;Temp;Humidity;BMP_temperature;BMP_pressure;BME280_temperature;BME280_humidity;BME280_pressure;Samples;Min_cycle;Max_cycle;Signal;HPM_P1;HPM_P2
2023/03/02 00:01:31;;;;;;;20.27;11.77;;;;;;;5.20;72.93;101648.03;4918131;29;20039;-88
2023/03/02 00:03:58;;;;;;;18.77;10.57;;;;;;;5.07;73.22;101655.97;4936662;29;20138;-86
2023/03/02 00:06:26;;;;;;;18.88;10.65;;;;;;;5.07;73.24;101640.84;4937151;29;20044;-86
2023/03/02 00:08:52;;;;;;;19.52;11.15;;;;;;;5.03;73.55;101633.13;4936003;29;20517;-88
2023/03/02 00:11:21;;;;;;;20.23;11.75;;;;;;;5.02;73.44;101607.44;4902260;29;20047;-86
2023/03/02 00:13:46;;;;;;;17.45;10.63;;;;;;;5.03;73.31;101609.16;4941188;29;20031;-85
2023/03/02 00:16:21;;;;;;;19.75;10.90;;;;;;;5.04;73.45;101605.53;4952552;28;20043;-84
2023/03/02 00:18:48;;;;;;;18.05;10.27;;;;;;;5.03;73.53;101598.50;4920926;29;20052;-86
2023/03/02 00:21:14;;;;;;;19.35;11.35;;;;;;;5.05;73.54;101601.91;4941957;29;20043;-87
2023/03/02 00:23:40;;;;;;;20.13;10.90;;;;;;;5.08;73.29;101591.06;4935202;29;20052;-86
2023/03/02 00:26:05;;;;;;;18.73;11.20;;;;;;;5.17;73.21;101609.06;4932807;29;20130;-87
2023/03/02 00:28:32;;;;;;;17.63;10.68;;;;;;;4.86;73.42;101594.28;4905388;29;20043;-88
2023/03/02 00:30:57;;;;;;;18.13;10.95;;;;;;;4.79;73.70;101593.81;4927773;29;20036;-88
2023/03/02 00:33:25;;;;;;;16.95;10.30;;;;;;;4.93;73.42;101570.75;4931727;29;20162;-87
2023/03/02 00:35:50;;;;;;;19.10;10.40;;;;;;;4.94;73.62;101585.78;4910635;29;20036;-87
2023/03/02 00:38:18;;;;;;;18.50;11.07;;;;;;;4.98;73.49;101571.28;4926119;29;20346;-88
2023/03/02 00:40:45;;;;;;;17.95;10.50;;;;;;;5.01;73.11;101579.06;4898482;29;20035;-88
2023/03/02 00:43:11;;;;;;;17.15;10.32;;;;;;;5.00;73.71;101582.72;4915867;29;20131;-87
2023/03/02 00:45:37;;;;;;;19.83;10.75;;;;;;;4.85;73.17;101561.47;4934077;29;20027;-87
2023/03/02 00:48:03;;;;;;;16.48;10.13;;;;;;;4.88;73.16;101559.56;4913429;29;20508;-87
2023/03/02 00:50:29;;;;;;;17.13;10.65;;;;;;;4.95;73.24;101560.84;4898136;29;20058;-88
2023/03/02 00:52:56;;;;;;;17.50;9.75;;;;;;;5.05;73.03;101572.59;4933568;29;20579;-87
2023/03/02 00:55:21;;;;;;;18.60;10.60;;;;;;;5.12;72.62;101555.22;4929337;29;20126;-88
2023/03/02 00:57:53;;;;;;;18.60;9.98;;;;;;;5.06;72.74;101555.66;4929271;29;20039;-87
2023/03/02 01:00:21;;;;;;;17.45;10.35;;;;;;;5.05;72.44;101545.94;4930206;29;20118;-86
2023/03/02 01:02:49;;;;;;;17.60;9.70;;;;;;;5.37;72.41;101586.41;4933165;29;20035;-87
2023/03/02 01:05:15;;;;;;;19.85;10.50;;;;;;;5.15;72.88;101557.72;4913643;29;20036;-87
2023/03/02 01:07:43;;;;;;;18.90;10.95;;;;;;;5.08;72.32;101551.09;4931812;29;20050;-87
2023/03/02 01:10:11;;;;;;;17.40;10.27;;;;;;;5.05;72.47;101552.13;4930832;29;20071;-87
2023/03/02 01:12:39;;;;;;;19.30;10.45;;;;;;;5.15;72.35;101575.50;4930535;29;20110;-85
2023/03/02 01:15:12;;;;;;;18.20;10.73;;;;;;;5.10;72.31;101577.63;4933591;29;20036;-87
2023/03/02 01:17:40;;;;;;;18.38;10.15;;;;;;;5.05;72.31;101578.78;4932528;29;20596;-85
2023/03/02 01:20:08;;;;;;;19.10;10.20;;;;;;;5.11;72.33;101577.53;4934464;29;20036;-86
2023/03/02 01:22:36;;;;;;;17.45;9.93;;;;;;;5.00;72.65;101569.38;4934089;29;20099;-86
2023/03/02 01:25:02;;;;;;;18.88;10.18;;;;;;;5.16;72.07;101570.06;4947671;29;20048;-87
2023/03/02 01:27:38;;;;;;;18.00;10.25;;;;;;;5.23;72.59;101573.16;4930639;29;20038;-86
2023/03/02 01:30:04;;;;;;;;;;;;;;;5.21;71.82;101570.59;4947233;29;20035;-87
2023/03/02 01:32:30;;;;;;;16.95;9.65;;;;;;;4.99;71.45;101546.38;4953589;28;19917;-88
2023/03/02 01:34:57;;;;;;;16.30;9.32;;;;;;;5.05;71.78;101545.94;4935170;29;20031;-89
2023/03/02 01:37:22;;;;;;;15.18;8.80;;;;;;;4.94;72.04;101535.13;4950443;29;20039;-87
2023/03/02 01:39:49;;;;;;;16.42;9.32;;;;;;;5.08;71.72;101554.59;4917966;29;20051;-86
2023/03/02 01:42:15;;;;;;;17.25;9.07;;;;;;;4.86;72.40;101539.16;4932964;29;20240;-89
2023/03/02 01:44:45;;;;;;;16.35;9.70;;;;;;;5.05;72.35;101551.25;4921859;29;20055;-89
2023/03/02 01:47:28;;;;;;;16.92;10.05;;;;;;;4.96;72.06;101543.88;4921858;29;20032;-89
2023/03/02 01:50:15;;;;;;;16.60;10.18;;;;;;;5.00;72.63;101564.06;4902761;29;20094;-89
2023/03/02 01:52:42;;;;;;;14.77;9.65;;;;;;;4.99;71.80;101568.53;4928299;29;20103;-89
2023/03/02 01:55:09;;;;;;;16.90;9.93;;;;;;;4.96;71.93;101568.72;4916194;29;20138;-89
2023/03/02 01:57:42;;;;;;;18.30;9.85;;;;;;;4.94;72.01;101553.78;4883486;29;20043;-88
2023/03/02 02:00:10;;;;;;;16.77;9.75;;;;;;;4.89;72.48;101572.75;4911607;29;20047;-89
2023/03/02 02:02:40;;;;;;;17.75;9.43;;;;;;;4.68;72.09;101548.38;4929734;29;20035;-86
2023/03/02 02:05:11;;;;;;;16.38;9.57;;;;;;;4.84;72.69;101583.72;4900919;29;20040;-86
2023/03/02 02:07:37;;;;;;;17.60;10.10;;;;;;;4.78;72.18;101564.66;4943935;29;20075;-86
2023/03/02 02:10:05;;;;;;;15.98;9.05;;;;;;;4.74;72.72;101573.78;4896574;29;20058;-86
2023/03/02 02:12:35;;;;;;;15.30;9.30;;;;;;;4.75;72.40;101539.06;4927623;29;20051;-85
2023/03/02 02:15:04;;;;;;;17.50;9.55;;;;;;;4.82;72.36;101567.00;4913337;29;20046;-87
2023/03/02 02:17:33;;;;;;;15.93;9.60;;;;;;;4.73;72.73;101562.28;4945520;29;20147;-87
2023/03/02 02:20:18;;;;;;;15.27;9.32;;;;;;;4.64;72.43;101547.75;4948366;28;20024;-87
2023/03/02 02:22:55;;;;;;;15.73;9.50;;;;;;;4.81;72.29;101554.63;4927411;29;20492;-86
2023/03/02 02:25:44;;;;;;;15.43;9.52;;;;;;;4.70;72.59;101572.25;4927209;29;20032;-87
2023/03/02 02:28:13;;;;;;;13.82;8.98;;;;;;;4.67;72.44;101567.16;4943345;28;20520;-86
2023/03/02 02:30:38;;;;;;;15.73;9.63;;;;;;;4.66;72.62;101574.28;4912721;29;20043;-86
2023/03/02 02:33:07;;;;;;;17.45;9.82;;;;;;;4.55;72.66;101547.50;4927841;29;20043;-85
2023/03/02 02:35:33;;;;;;;15.77;9.40;;;;;;;4.68;72.09;101553.72;4928384;29;20054;-85
2023/03/02 02:38:04;;;;;;;17.15;10.00;;;;;;;4.52;72.34;101551.22;4912521;29;20057;-86
2023/03/02 02:40:53;;;;;;;17.60;10.13;;;;;;;4.62;71.92;101559.47;4897312;29;20544;-86
2023/03/02 02:43:20;;;;;;;16.17;9.82;;;;;;;4.61;72.52;101563.06;4931195;29;20052;-86
2023/03/02 02:45:48;;;;;;;15.70;9.57;;;;;;;4.69;72.04;101568.75;4913314;29;20074;-87
2023/03/02 02:48:37;;;;;;;17.23;10.00;;;;;;;4.68;72.32;101569.69;4919380;29;20520;-85
2023/03/02 02:51:03;;;;;;;16.77;9.63;;;;;;;4.60;72.35;101550.72;4940637;29;20062;-87
2023/03/02 02:53:50;;;;;;;15.02;9.32;;;;;;;4.60;72.00;101556.88;4932049;29;20035;-88
2023/03/02 02:56:16;;;;;;;17.67;9.38;;;;;;;4.78;71.52;101565.50;4946528;28;20167;-89
2023/03/02 02:58:47;;;;;;;16.48;9.32;;;;;;;4.81;71.46;101564.44;4923950;29;20032;-89
2023/03/02 03:01:16;;;;;;;18.98;9.77;;;;;;;4.84;71.30;101562.41;4912784;29;20035;-87
2023/03/02 03:03:45;;;;;;;15.98;9.57;;;;;;;4.75;71.40;101548.84;4888238;29;20070;-88
2023/03/02 03:06:17;;;;;;;14.73;9.68;;;;;;;4.86;71.14;101541.84;4887471;29;20031;-88
2023/03/02 03:08:50;;;;;;;21.00;10.18;;;;;;;4.59;70.96;101527.72;4930268;29;20103;-88
2023/03/02 03:11:22;;;;;;;17.80;10.43;;;;;;;4.64;71.39;101545.09;4920790;29;20035;-88
2023/03/02 03:13:51;;;;;;;17.75;10.07;;;;;;;4.69;70.87;101541.28;4920634;29;20073;-89
2023/03/02 03:16:18;;;;;;;18.13;9.82;;;;;;;4.83;71.33;101544.72;4911442;29;20048;-89
2023/03/02 03:18:47;;;;;;;19.77;11.07;;;;;;;4.69;71.03;101534.13;4927227;29;20027;-86
2023/03/02 03:21:13;;;;;;;17.75;10.35;;;;;;;4.61;71.32;101537.31;4919482;29;20433;-87
2023/03/02 03:23:38;;;;;;;20.70;10.63;;;;;;;4.63;71.03;101529.19;4920585;29;20060;-86
2023/03/02 03:26:08;;;;;;;17.40;10.63;;;;;;;4.69;71.41;101555.44;4939889;29;20078;-88
2023/03/02 03:28:35;;;;;;;22.27;10.75;;;;;;;4.74;70.70;101545.31;4932448;29;20036;-87
2023/03/02 03:31:00;;;;;;;19.00;10.65;;;;;;;4.65;71.24;101557.44;4933768;29;20068;-87
2023/03/02 03:33:28;;;;;;;19.13;11.15;;;;;;;4.63;71.14;101546.03;4910913;29;20048;-88
2023/03/02 03:35:55;;;;;;;18.17;11.10;;;;;;;4.60;71.50;101556.03;4933965;29;20051;-86
2023/03/02 03:38:22;;;;;;;18.17;10.75;;;;;;;4.57;71.19;101545.59;4935282;29;20035;-85
2023/03/02 03:40:47;;;;;;;17.75;10.20;;;;;;;4.72;71.30;101579.19;4930510;29;20071;-87
2023/03/02 03:43:17;;;;;;;18.60;10.70;;;;;;;4.64;72.02;101578.88;4921212;29;20067;-87
2023/03/02 03:45:43;;;;;;;19.48;10.98;;;;;;;4.73;71.77;101588.91;4926547;29;20426;-87
2023/03/02 03:48:11;;;;;;;17.15;10.18;;;;;;;4.81;71.36;101588.41;4896150;29;20071;-85
2023/03/02 03:50:37;;;;;;;17.33;10.60;;;;;;;4.74;71.09;101563.97;4916883;29;20032;-86
2023/03/02 03:53:02;;;;;;;18.50;10.40;;;;;;;4.66;71.36;101574.28;4926609;29;20576;-87
2023/03/02 03:55:29;;;;;;;19.35;10.68;;;;;;;4.52;71.84;101576.97;4935395;28;20058;-89
2023/03/02 03:57:54;;;;;;;18.42;10.60;;;;;;;4.62;72.17;101576.28;4938717;29;20058;-88
2023/03/02 04:00:20;;;;;;;18.70;10.88;;;;;;;4.75;71.39;101580.81;4947580;29;20043;-86
2023/03/02 04:02:47;;;;;;;19.35;10.77;;;;;;;4.69;71.73;101582.06;4910891;29;20476;-86
2023/03/02 04:05:18;;;;;;;20.58;11.15;;;;;;;4.83;71.36;101589.16;4933151;29;20083;-88
2023/03/02 04:07:44;;;;;;;19.15;11.13;;;;;;;4.73;71.18;101564.94;4921431;29;20031;-86
2023/03/02 04:10:11;;;;;;;19.40;10.55;;;;;;;4.78;71.60;101578.81;4923341;29;20048;-86
2023/03/02 04:12:37;;;;;;;;;;;;;;;4.99;71.41;101602.34;4886531;29;20051;-85
2023/03/02 04:15:04;;;;;;;19.17;10.50;;;;;;;4.72;71.16;101581.88;4907682;29;20005;-87
2023/03/02 04:17:30;;;;;;;18.42;10.48;;;;;;;4.90;70.97;101600.28;4931685;29;20043;-87
2023/03/02 04:19:56;;;;;;;21.60;10.65;;;;;;;4.95;71.15;101609.66;4927144;29;20039;-87
2023/03/02 04:22:25;;;;;;;19.63;11.05;;;;;;;4.93;71.08;101595.59;4925210;29;20521;-85
2023/03/02 04:24:50;;;;;;;19.48;11.05;;;;;;;4.97;70.82;101596.25;4944053;28;20058;-85
2023/03/02 04:27:16;;;;;;;19.70;11.38;;;;;;;4.94;70.90;101588.44;4916245;29;20130;-86
2023/03/02 04:29:44;;;;;;;18.50;10.95;;;;;;;4.83;70.45;101582.03;4916146;29;20508;-86
2023/03/02 04:32:13;;;;;;;20.80;11.10;;;;;;;4.88;70.30;101594.19;4929580;29;20032;-86
2023/03/02 04:34:39;;;;;;;19.98;11.20;;;;;;;4.78;70.74;101580.63;4929926;29;20118;-86
2023/03/02 04:37:04;;;;;;;17.92;11.07;;;;;;;4.86;70.42;101596.94;4931202;29;20476;-85
2023/03/02 04:39:46;;;;;;;21.33;12.00;;;;;;;4.83;70.45;101583.84;4929721;29;20149;-86
2023/03/02 04:42:12;;;;;;;20.67;11.48;;;;;;;4.74;70.63;101587.94;4920355;29;20042;-87
2023/03/02 04:44:41;;;;;;;20.25;11.23;;;;;;;4.85;70.48;101597.91;4935360;29;20039;-85
2023/03/02 04:47:09;;;;;;;19.10;11.55;;;;;;;4.83;70.48;101594.50;4949341;29;20043;-87
2023/03/02 04:49:36;;;;;;;18.73;11.13;;;;;;;4.83;69.84;101599.81;4946143;29;20051;-84
2023/03/02 04:52:01;;;;;;;21.45;11.38;;;;;;;4.96;69.81;101598.03;4932138;29;20134;-84
2023/03/02 04:54:27;;;;;;;20.20;11.07;;;;;;;4.97;69.79;101593.59;4930318;29;20546;-85
2023/03/02 04:56:55;;;;;;;18.60;11.07;;;;;;;4.98;69.02;101613.94;4933261;29;20170;-86
2023/03/02 04:59:25;;;;;;;22.88;11.73;;;;;;;5.00;69.18;101625.34;4946488;29;20497;-87
2023/03/02 05:01:56;;;;;;;20.85;11.48;;;;;;;4.89;69.38;101606.53;4912455;29;20035;-86
2023/03/02 05:04:24;;;;;;;20.48;11.23;;;;;;;4.89;69.29;101641.19;4928226;29;20465;-86
2023/03/02 05:06:53;;;;;;;20.50;11.80;;;;;;;4.79;69.35;101609.81;4916177;29;20368;-88
2023/03/02 05:09:25;;;;;;;21.35;11.50;;;;;;;4.88;69.50;101612.84;4930080;29;20083;-86
2023/03/02 05:11:53;;;;;;;22.83;12.38;;;;;;;4.90;69.76;101602.94;4915492;29;20035;-85
2023/03/02 05:14:38;;;;;;;21.10;12.55;;;;;;;5.09;69.00;101616.75;4917519;29;20099;-86
2023/03/02 05:17:03;;;;;;;22.90;11.90;;;;;;;5.16;69.63;101622.53;4935907;29;20162;-85
2023/03/02 05:19:30;;;;;;;20.77;12.50;;;;;;;5.07;69.25;101608.84;4931715;29;20064;-87
2023/03/02 05:21:56;;;;;;;22.33;12.73;;;;;;;5.09;70.28;101622.09;4934200;29;20118;-86
2023/03/02 05:24:22;;;;;;;21.35;11.35;;;;;;;5.37;70.58;101634.41;4937604;29;20086;-89
2023/03/02 05:26:50;;;;;;;21.42;12.35;;;;;;;5.25;70.19;101637.91;4924899;29;20031;-88
2023/03/02 05:29:16;;;;;;;21.67;11.50;;;;;;;5.19;70.04;101623.16;4928620;29;20279;-88
2023/03/02 05:31:48;;;;;;;33.92;19.55;;;;;;;5.27;70.41;101636.84;4930620;29;20052;-88
2023/03/02 05:34:15;;;;;;;26.23;15.30;;;;;;;5.33;69.89;101626.72;4938946;29;20103;-90
2023/03/02 05:36:41;;;;;;;;;;;;;;;5.39;69.56;101634.31;4923551;29;20118;-89
2023/03/02 05:39:07;;;;;;;27.17;11.82;;;;;;;5.36;69.12;101629.19;4938510;29;19962;-87
2023/03/02 05:41:34;;;;;;;;;;;;;;;5.21;69.98;101642.59;4931373;29;20041;-89
2023/03/02 05:44:01;;;;;;;19.63;11.02;;;;;;;5.03;69.55;101611.81;4934640;29;19923;-89
2023/03/02 05:47:05;;;;;;;20.23;11.55;;;;;;;5.32;70.07;101643.69;4918122;29;20078;-87
2023/03/02 05:49:32;;;;;;;20.80;11.63;;;;;;;5.14;68.81;101635.94;4938052;29;20043;-89
2023/03/02 05:51:57;;;;;;;;;;;;;;;5.43;69.43;101650.03;4914731;29;20066;-90
2023/03/02 05:54:24;;;;;;;;;;;;;;;5.52;68.23;101651.19;4934026;29;19919;-88
2023/03/02 05:56:57;;;;;;;22.92;11.48;;;;;;;5.21;69.47;101637.25;4943483;29;20006;-91
2023/03/02 05:59:24;;;;;;;20.90;11.68;;;;;;;5.40;68.48;101652.88;4933899;29;20032;-91
2023/03/02 06:01:57;;;;;;;19.70;12.30;;;;;;;5.45;69.07;101649.91;4921013;29;20039;-91
2023/03/02 06:04:28;;;;;;;20.15;11.65;;;;;;;5.46;68.04;101670.28;4940158;29;20122;-91
2023/03/02 06:06:56;;;;;;;22.63;12.93;;;;;;;5.44;68.57;101658.88;4942353;29;20099;-89
2023/03/02 06:09:24;;;;;;;20.50;12.38;;;;;;;5.43;68.07;101635.81;4920410;29;20043;-89
2023/03/02 06:11:52;;;;;;;20.70;13.05;;;;;;;5.48;66.92;101652.38;4961258;28;20123;-89
2023/03/02 06:17:40;;;;;;;22.17;12.73;;;;;;;5.38;67.65;101653.94;4935975;29;21445;-84
2023/03/02 06:20:17;;;;;;;22.70;12.48;;;;;;;5.58;67.66;101649.94;4927099;29;20039;-85
2023/03/02 06:22:47;;;;;;;20.85;12.93;;;;;;;5.60;67.67;101670.22;4908608;29;20477;-87
2023/03/02 06:25:42;;;;;;;24.05;12.88;;;;;;;5.96;67.00;101671.34;4929973;29;20703;-84
2023/03/02 06:28:20;;;;;;;22.45;12.70;;;;;;;5.85;65.50;101664.06;4932121;29;20258;-83
2023/03/02 06:30:49;;;;;;;25.08;13.10;;;;;;;5.92;65.77;101659.13;4917278;29;20126;-83
2023/03/02 06:33:16;;;;;;;23.30;13.60;;;;;;;6.02;64.91;101662.06;4932687;29;20058;-85
2023/03/02 06:36:11;;;;;;;24.05;13.40;;;;;;;5.98;65.20;101648.06;4929291;29;20094;-83
2023/03/02 06:38:46;;;;;;;22.83;13.87;;;;;;;6.49;65.21;101690.75;4935176;29;20043;-84
2023/03/02 06:41:11;;;;;;;23.52;13.48;;;;;;;6.42;64.21;101678.81;4883142;29;20435;-84
2023/03/02 06:44:10;;;;;;;26.42;14.23;;;;;;;6.43;63.52;101659.13;4919023;29;20237;-84
2023/03/02 06:46:37;;;;;;;23.00;13.65;;;;;;;6.77;62.00;101683.44;4928555;29;20048;-82
2023/03/02 06:49:02;;;;;;;23.15;13.80;;;;;;;6.75;62.47;101682.69;4914165;29;20027;-84
2023/03/02 06:51:28;;;;;;;26.63;14.00;;;;;;;6.67;62.68;101669.88;4914425;29;20126;-85
2023/03/02 06:53:54;;;;;;;21.58;13.80;;;;;;;6.71;61.49;101671.34;4912029;29;20040;-84
2023/03/02 06:56:19;;;;;;;;;;;;;;;6.81;61.24;101690.25;4926655;29;20044;-82
2023/03/02 06:58:56;;;;;;;24.75;14.27;;;;;;;6.61;61.70;101673.00;4936196;29;19927;-84
2023/03/02 07:01:21;;;;;;;27.92;14.93;;;;;;;6.66;62.55;101665.50;4931477;29;20083;-82
2023/03/02 07:03:47;;;;;;;23.98;14.68;;;;;;;6.90;62.28;101699.41;4924554;29;20521;-84
2023/03/02 07:06:12;;;;;;;24.77;14.27;;;;;;;6.64;60.96;101699.47;4936092;29;20110;-82
2023/03/02 07:08:41;;;;;;;23.10;14.07;;;;;;;6.25;62.14;101693.34;4918815;29;20075;-81
2023/03/02 07:11:11;;;;;;;29.33;16.13;;;;;;;6.00;63.27;101688.00;4918956;29;20044;-82
2023/03/02 07:13:37;;;;;;;26.25;14.80;;;;;;;6.33;62.87;101692.81;4922525;29;20415;-82
2023/03/02 07:16:09;;;;;;;25.20;14.93;;;;;;;6.48;62.47;101693.53;4927092;29;20032;-82
2023/03/02 07:18:39;;;;;;;27.67;15.45;;;;;;;6.74;61.63;101694.31;4933184;29;20207;-81
2023/03/02 07:21:05;;;;;;;27.75;15.00;;;;;;;6.75;61.19;101680.00;4931070;29;20338;-82
2023/03/02 07:23:34;;;;;;;28.20;15.70;;;;;;;6.75;61.19;101691.56;4916241;29;20058;-80
2023/03/02 07:25:59;;;;;;;26.23;14.88;;;;;;;6.83;61.40;101688.31;4933239;29;20499;-82
2023/03/02 07:28:25;;;;;;;27.73;15.50;;;;;;;7.00;60.49;101688.91;4931681;29;20027;-87
2023/03/02 07:30:53;;;;;;;26.77;15.57;;;;;;;7.03;60.88;101680.69;4931903;29;20059;-87
2023/03/02 07:33:26;;;;;;;25.00;14.63;;;;;;;7.24;60.92;101687.09;4934791;29;20471;-87
2023/03/02 07:36:01;;;;;;;22.80;14.60;;;;;;;7.14;59.98;101670.00;4929254;29;20032;-94
2023/03/02 07:38:35;;;;;;;31.35;16.23;;;;;;;7.15;60.28;101645.00;4935413;29;20073;-91
2023/03/02 07:41:05;;;;;;;31.73;16.15;;;;;;;7.32;60.41;101652.59;4947929;29;20500;-87
2023/03/02 07:43:34;;;;;;;37.60;17.52;;;;;;;7.50;60.31;101692.31;4934377;29;20027;-92
2023/03/02 07:46:45;;;;;;;29.98;15.50;;;;;;;7.26;60.34;101692.31;4943517;29;20046;-89
2023/03/02 07:49:11;;;;;;;34.03;16.73;;;;;;;7.25;61.47;101667.41;4935078;29;20027;-88
2023/03/02 07:55:03;;;;;;;30.35;16.35;;;;;;;7.31;60.52;101666.94;4951385;28;20034;-91
2023/03/02 07:57:31;;;;;;;28.23;16.45;;;;;;;7.42;60.52;101679.50;4942604;28;20095;-91
2023/03/02 08:00:00;;;;;;;29.58;16.50;;;;;;;7.27;60.72;101644.06;4942829;29;20108;-81
2023/03/02 08:02:27;;;;;;;44.88;17.75;;;;;;;7.56;60.85;101675.78;4938007;29;20508;-85
2023/03/02 08:04:55;;;;;;;30.80;16.05;;;;;;;7.65;59.59;101658.19;4936230;29;20036;-85
2023/03/02 08:07:23;;;;;;;26.75;15.93;;;;;;;7.56;59.68;101670.44;4932044;29;20075;-86
2023/03/02 08:09:55;;;;;;;40.58;17.15;;;;;;;7.52;61.43;101650.25;4919044;29;20055;-88
2023/03/02 08:12:23;;;;;;;31.48;16.15;;;;;;;7.74;59.84;101669.03;4931496;29;20036;-89
2023/03/02 08:14:51;;;;;;;27.02;16.15;;;;;;;7.91;60.64;101678.44;4916964;29;20054;-87
2023/03/02 08:17:18;;;;;;;26.73;15.98;;;;;;;7.67;60.74;101673.16;4938822;29;20032;-89
2023/03/02 08:19:44;;;;;;;30.08;15.88;;;;;;;7.99;60.16;101683.22;4934511;29;20778;-86
2023/03/02 08:22:10;;;;;;;27.70;16.42;;;;;;;7.98;59.88;101677.00;4919937;29;20126;-86
2023/03/02 08:24:36;;;;;;;29.10;15.90;;;;;;;7.96;59.98;101678.06;4936761;29;20460;-88
2023/03/02 08:27:06;;;;;;;34.13;15.93;;;;;;;7.71;60.53;101634.47;4917822;29;20032;-88
2023/03/02 08:29:31;;;;;;;34.30;17.08;;;;;;;8.04;60.00;101663.13;4887481;29;20044;-83
2023/03/02 08:31:59;;;;;;;27.15;15.15;;;;;;;7.69;60.43;101651.63;4925068;29;20035;-92
2023/03/02 08:34:31;;;;;;;25.05;15.20;;;;;;;7.66;61.09;101660.75;4930330;29;20039;-86
2023/03/02 08:36:59;;;;;;;25.77;15.10;;;;;;;7.59;61.30;101659.50;4902316;29;20119;-85
2023/03/02 08:39:29;;;;;;;31.13;15.23;;;;;;;7.59;61.90;101678.25;4946381;29;20115;-86
2023/03/02 08:41:54;;;;;;;27.70;16.73;;;;;;;7.33;62.60;101688.25;4932885;29;20110;-91
2023/03/02 08:44:30;;;;;;;32.20;15.45;;;;;;;7.19;62.91;101670.56;4930922;29;20046;-91
2023/03/02 08:47:01;;;;;;;29.80;16.05;;;;;;;7.22;62.82;101659.59;4945102;29;20067;-89
2023/03/02 08:49:36;;;;;;;30.70;17.52;;;;;;;7.06;63.36;101681.28;4918490;29;20438;-91
2023/03/02 08:52:07;;;;;;;33.30;16.13;;;;;;;7.03;63.05;101659.28;4906247;29;20508;-91
2023/03/02 08:55:06;;;;;;;;;;;;;;;;;;;;;
2023/03/02 08:57:40;;;;;;;30.15;15.15;;;;;;;7.04;62.67;101663.66;4937932;29;20091;-90
2023/03/02 09:00:23;;;;;;;;;;;;;;;;;;;;;
2023/03/02 09:03:05;;;;;;;;;;;;;;;;;;;;;
2023/03/02 09:06:05;;;;;;;31.08;16.42;;;;;;;6.98;63.35;101671.16;4929281;29;20039;-93
2023/03/02 09:08:40;;;;;;;31.05;15.82;;;;;;;6.92;63.22;101644.03;4942434;29;20477;-91
2023/03/02 09:11:53;;;;;;;28.17;16.67;;;;;;;6.81;63.46;101652.81;4916460;29;20045;-90
2023/03/02 09:14:28;;;;;;;34.75;17.20;;;;;;;6.72;64.12;101659.72;4928119;29;20056;-91
2023/03/02 09:16:56;;;;;;;28.57;15.40;;;;;;;6.89;62.93;101658.47;4887727;29;20145;-91
2023/03/02 09:19:23;;;;;;;26.77;15.93;;;;;;;6.87;62.51;101651.53;4927189;29;20779;-92
2023/03/02 09:21:57;;;;;;;29.08;16.77;;;;;;;6.91;63.07;101661.88;4930075;29;20130;-91
2023/03/02 09:24:29;;;;;;;29.75;15.95;;;;;;;6.95;62.55;101649.13;4921436;29;20052;-92
2023/03/02 09:27:10;;;;;;;23.75;12.50;;;;;;;7.09;61.92;101673.03;4869798;29;20091;-91
2023/03/02 09:29:40;;;;;;;31.80;15.82;;;;;;;7.16;61.95;101652.03;4883964;29;20036;-92
2023/03/02 09:32:08;;;;;;;28.83;14.68;;;;;;;7.50;60.98;101657.53;4881612;29;20458;-91
2023/03/02 09:34:55;;;;;;;22.42;13.02;;;;;;;7.59;59.70;101649.66;4896097;29;20032;-93
2023/03/02 09:38:16;;;;;;;;;;;;;;;;;;;;;
2023/03/02 09:40:52;;;;;;;18.73;10.85;;;;;;;7.74;56.57;101652.97;4910353;29;20035;-91
2023/03/02 09:44:08;;;;;;;;;;;;;;;;;;;;;
2023/03/02 09:46:55;;;;;;;17.27;9.70;;;;;;;8.33;53.67;101664.47;4915547;29;20056;-91
2023/03/02 09:50:03;;;;;;;19.90;10.77;;;;;;;8.92;52.43;101649.94;4883703;29;20044;-93
2023/03/02 09:53:00;;;;;;;;;;;;;;;;;;;;;
2023/03/02 09:56:01;;;;;;;24.95;11.90;;;;;;;9.86;48.69;101646.47;4900626;29;20135;-94
2023/03/02 09:58:38;;;;;;;;;;;;;;;;;;;;;
2023/03/02 10:01:53;;;;;;;23.85;11.23;;;;;;;11.31;43.55;101647.06;4876247;29;20399;-94
2023/03/02 10:08:02;;;;;;;;;;;;;;;;;;;;;
2023/03/02 10:11:07;;;;;;;16.70;9.65;;;;;;;10.81;42.00;101628.31;4865900;29;20607;-92
2023/03/02 10:13:57;;;;;;;18.70;10.20;;;;;;;11.14;41.71;101610.91;4892441;29;20052;-90
2023/03/02 10:16:44;;;;;;;18.85;10.50;;;;;;;11.27;42.08;101633.03;4927494;29;20052;-92
2023/03/02 10:23:22;;;;;;;19.15;11.57;;;;;;;11.53;42.69;101611.75;4906646;29;20119;-90
2023/03/02 10:26:08;;;;;;;;;;;;;;;;;;;;;
2023/03/02 10:28:51;;;;;;;19.25;10.75;;;;;;;11.67;42.76;101597.00;4891557;29;20448;-92
2023/03/02 10:31:45;;;;;;;;;;;;;;;;;;;;;
2023/03/02 10:38:00;;;;;;;;;;;;;;;;;;;;;
2023/03/02 10:41:23;;;;;;;19.95;11.55;;;;;;;12.94;41.07;101612.59;4840193;29;20152;-93
2023/03/02 10:49:42;;;;;;;17.83;12.15;;;;;;;14.67;36.36;101588.44;4936821;29;20050;-92
2023/03/02 10:52:53;;;;;;;18.70;12.73;;;;;;;14.44;37.28;101575.47;4886237;29;20052;-92
2023/03/02 10:56:04;;;;;;;20.40;12.90;;;;;;;14.47;37.91;101596.81;4948884;29;20016;-93
2023/03/02 11:01:33;;;;;;;23.65;11.95;;;;;;;13.57;39.57;101565.75;4898000;29;20047;-92
2023/03/02 11:04:02;;;;;;;16.88;11.82;;;;;;;13.18;40.18;101568.78;4890839;29;20059;-92
2023/03/02 11:07:16;;;;;;;;;;;;;;;;;;;;;
2023/03/02 11:10:36;;;;;;;18.88;12.18;;;;;;;13.06;41.42;101584.38;4857568;29;20077;-92
2023/03/02 11:16:49;;;;;;;20.15;13.50;;;;;;;11.81;45.30;101544.50;4842830;29;20045;-93
2023/03/02 11:19:31;;;;;;;22.98;13.00;;;;;;;11.69;45.58;101545.66;4825539;29;20058;-93
2023/03/02 11:22:52;;;;;;;23.48;13.52;;;;;;;11.31;46.85;101536.69;4845496;29;20060;-92
2023/03/02 11:25:35;;;;;;;26.90;14.20;;;;;;;11.35;47.98;101535.41;4813382;29;20145;-89
2023/03/02 11:28:53;;;;;;;22.63;13.70;;;;;;;11.45;48.86;101573.94;4809955;29;20053;-88
2023/03/02 11:31:29;;;;;;;22.45;13.95;;;;;;;10.94;49.08;101551.72;4831510;29;20048;-88
2023/03/02 11:34:15;;;;;;;21.73;13.00;;;;;;;11.16;49.48;101566.72;4812303;29;20145;-91
2023/03/02 11:37:14;;;;;;;23.40;13.73;;;;;;;10.71;49.86;101550.31;4841705;29;20072;-88
2023/03/02 11:39:46;;;;;;;21.95;13.57;;;;;;;11.09;49.41;101575.50;4874043;29;20047;-87
2023/03/02 11:42:20;;;;;;;22.55;13.52;;;;;;;10.82;50.21;101542.09;4924508;29;20435;-85
2023/03/02 11:44:47;;;;;;;22.88;13.27;;;;;;;10.58;50.61;101534.41;4911223;29;21146;-85
2023/03/02 11:47:14;;;;;;;22.65;13.70;;;;;;;10.62;51.01;101538.53;4914253;29;20425;-84
2023/03/02 11:49:47;;;;;;;21.48;13.30;;;;;;;10.45;51.27;101528.47;4892122;29;20059;-87
2023/03/02 11:52:19;;;;;;;25.10;13.80;;;;;;;10.67;51.46;101536.28;4888370;29;20538;-90
2023/03/02 11:55:13;;;;;;;20.92;13.38;;;;;;;10.57;51.55;101533.56;4908806;29;20089;-91
2023/03/02 11:57:48;;;;;;;22.58;13.52;;;;;;;10.56;51.78;101555.25;4933820;29;20067;-94
2023/03/02 12:00:36;;;;;;;28.25;12.68;;;;;;;10.52;51.04;101533.16;4900804;29;20527;-88
2023/03/02 12:03:09;;;;;;;22.02;12.45;;;;;;;10.04;51.38;101527.63;4919151;29;20516;-88
2023/03/02 12:05:39;;;;;;;21.50;12.93;;;;;;;10.20;51.73;101522.56;4906551;29;20058;-86
2023/03/02 12:08:26;;;;;;;20.38;13.02;;;;;;;10.76;50.56;101548.03;4888819;29;20070;-86
2023/03/02 12:11:09;;;;;;;22.15;12.77;;;;;;;10.45;50.41;101525.78;4903224;29;20102;-92
2023/03/02 12:13:55;;;;;;;22.67;13.20;;;;;;;10.73;50.57;101545.63;4914313;29;20124;-92
2023/03/02 12:16:53;;;;;;;21.45;12.52;;;;;;;10.85;50.16;101546.34;4943199;29;20047;-91
2023/03/02 12:19:58;;;;;;;28.05;14.07;;;;;;;10.41;50.41;101519.00;4920810;29;20106;-93
2023/03/02 12:22:41;;;;;;;28.20;13.20;;;;;;;10.31;50.90;101529.72;4906953;29;20047;-92
2023/03/02 12:25:30;;;;;;;18.58;11.73;;;;;;;10.62;49.91;101545.75;4892385;29;20039;-94
2023/03/02 12:28:03;;;;;;;20.58;11.65;;;;;;;10.46;49.39;101524.78;4941360;29;20047;-91
2023/03/02 12:30:44;;;;;;;21.30;12.13;;;;;;;10.18;50.09;101519.19;4921700;29;20084;-93
2023/03/02 12:33:24;;;;;;;18.55;11.70;;;;;;;10.48;49.07;101555.06;4932474;29;20092;-92
2023/03/02 12:36:11;;;;;;;19.35;11.75;;;;;;;9.90;49.60;101524.34;4917078;29;20493;-94